createdAt,value
2023-03-29T00:04:27.715Z,98527.44
2023-03-29T00:14:49.637Z,98520.06
2023-03-29T00:25:12.493Z,98508.50
2023-03-29T00:35:34.156Z,98537.69
2023-03-29T00:45:56.226Z,98555.19
2023-03-29T00:56:33.330Z,98542.78
2023-03-29T01:07:09.822Z,98566.81
2023-03-29T01:17:31.824Z,98584.97
2023-03-29T01:28:13.475Z,98602.31
2023-03-29T01:38:48.420Z,98600.63
2023-03-29T01:49:20.512Z,98626.31
2023-03-29T01:59:44.563Z,98650.31
2023-03-29T02:10:08.827Z,98659.50
2023-03-29T02:20:39.130Z,98691.84
2023-03-29T02:31:19.042Z,98710.94
2023-03-29T02:41:43.498Z,98718.44
2023-03-29T02:52:14.702Z,98718.44
2023-03-29T03:02:37.839Z,98725.09
2023-03-29T03:13:01.218Z,98737.53
2023-03-29T03:23:25.231Z,98726.81
2023-03-29T03:33:47.048Z,98740.94
2023-03-29T03:44:29.351Z,98757.63
2023-03-29T03:55:10.746Z,98764.38
2023-03-29T04:05:50.720Z,98790.97
2023-03-29T04:16:14.473Z,98793.44
2023-03-29T04:26:36.463Z,98793.50
2023-03-29T04:37:10.499Z,98825.00
2023-03-29T04:47:32.703Z,98834.25
2023-03-29T04:58:05.465Z,98833.38
2023-03-29T05:08:29.323Z,98828.56
2023-03-29T05:19:03.792Z,98844.25
2023-03-29T05:29:27.579Z,98862.59
2023-03-29T05:40:06.073Z,98860.09
2023-03-29T05:50:31.908Z,98874.88
2023-03-29T06:00:54.672Z,98887.19
2023-03-29T06:11:51.314Z,98910.28
2023-03-29T06:22:34.131Z,98923.97
2023-03-29T06:32:55.630Z,98929.13
2023-03-29T06:43:35.932Z,98943.78
2023-03-29T06:54:02.198Z,98950.91
2023-03-29T07:04:24.703Z,98969.91
2023-03-29T07:15:01.881Z,98997.06
2023-03-29T07:25:43.150Z,99004.28
2023-03-29T07:36:06.955Z,99041.81
2023-03-29T07:46:29.828Z,99041.91
2023-03-29T07:56:51.960Z,99044.97
2023-03-29T08:07:27.815Z,99060.78
2023-03-29T08:17:48.882Z,99086.47
2023-03-29T08:28:10.650Z,99095.22
2023-03-29T08:38:39.154Z,99096.66
2023-03-29T08:49:04.460Z,99112.66
2023-03-29T08:59:31.243Z,99122.63
2023-03-29T09:09:54.344Z,99131.06
2023-03-29T14:18:59.824Z,99426.63
2023-03-29T14:29:24.285Z,99436.56
2023-03-29T14:39:46.756Z,99452.34
2023-03-29T14:50:19.859Z,99460.75
2023-03-29T15:00:44.603Z,99474.06
2023-03-29T15:11:26.582Z,99474.13
2023-03-29T15:21:50.581Z,99497.44
2023-03-29T15:32:37.213Z,99510.81
2023-03-29T15:42:58.904Z,99518.38
2023-03-29T15:53:23.625Z,99524.19
2023-03-29T16:03:47.631Z,99554.22
2023-03-29T16:14:25.435Z,99554.34
2023-03-29T16:24:46.985Z,99549.31
2023-03-29T16:35:28.938Z,99551.19
2023-03-29T16:45:50.022Z,99579.44
2023-03-29T16:56:11.002Z,99596.09
2023-03-29T17:06:33.009Z,99601.16
2023-03-29T17:16:54.538Z,99616.13
2023-03-29T17:27:16.024Z,99621.13
2023-03-29T17:37:37.355Z,99642.00
2023-03-29T17:47:58.847Z,99645.34
2023-03-29T17:58:20.515Z,99657.88
2023-03-29T18:08:41.769Z,99678.59
2023-03-29T18:19:03.240Z,99687.78
2023-03-29T18:29:24.543Z,99687.81
2023-03-29T18:39:48.013Z,99690.28
2023-03-29T18:50:10.244Z,99701.94
2023-03-29T19:00:31.500Z,99706.09
2023-03-29T19:10:56.985Z,99714.53
2023-03-29T19:21:18.075Z,99715.34
2023-03-29T19:31:39.666Z,99707.22
2023-03-29T19:42:01.465Z,99719.75
2023-03-29T19:52:24.063Z,99723.84
2023-03-29T20:02:45.190Z,99718.06
2023-03-29T20:13:07.248Z,99719.03
2023-03-29T20:23:28.487Z,99732.38
2023-03-29T20:33:49.865Z,99741.66
2023-03-29T20:44:12.627Z,99740.03
2023-03-29T20:54:37.092Z,99745.88
2023-03-29T21:05:00.322Z,99753.50
2023-03-29T21:15:21.773Z,99756.88
2023-03-29T21:25:44.007Z,99760.22
2023-03-29T21:36:05.747Z,99758.69
2023-03-29T21:46:27.580Z,99758.72
2023-03-29T21:56:48.702Z,99779.66
2023-03-29T22:07:10.643Z,99784.81
2023-03-29T22:17:32.854Z,99779.97
2023-03-29T22:27:54.299Z,99800.72
2023-03-29T22:38:15.865Z,99796.72
2023-03-29T22:48:37.455Z,99781.88
2023-03-29T22:58:59.070Z,99791.16
2023-03-29T23:09:21.020Z,99787.09
2023-03-29T23:19:42.512Z,99803.69
2023-03-29T23:30:04.332Z,99793.81
2023-03-29T23:40:26.152Z,99792.16
2023-03-29T23:50:48.084Z,99800.47
